Mora, MN

2:38 PM CDT on July 26, 2017 (GMT -0500)
Mora Municipal

Weather History for KJMR - October, 2013

Change the Weather History Date:

Friday, October 11, 2013

  Actual Average Record
Temperature  
Mean Temperature 61 °F -  
Max Temperature 69 °F 58 °F 82 °F (1934)
Min Temperature 53 °F 33 °F 5 °F (1999)
Degree Days  
Heating Degree Days 4    
Growing Degree Days 11 (Base 50)    
Moisture  
Dew Point 49 °F    
Average Humidity 64    
Maximum Humidity 88    
Minimum Humidity 43    
Precipitation  
Precipitation 0.21 in - - ()
Sea Level Pressure  
Sea Level Pressure 29.78 in    
Wind  
Wind Speed 9 mph (SE)    
Max Wind Speed 21 mph    
Max Gust Speed 34 mph    
Visibility 10 miles    
Events Rain , Thunderstorm    
Averages and records for this station are not official NWS values.
T = Trace of Precipitation, MM = Missing Value Source: NWS Daily Summary

Daily Weather History Graph

Daily Weather History Graph

Search for Another Location

Airport or City:

Trip Planner

Search our weather history database for the weather conditions in past years. The results will help you decide how hot, cold, wet, or windy it might be!

Date:

Astronomy

Oct. 11, 2013 Rise Set
Actual Time 7:24 AM CDT 6:33 PM CDT
Civil Twilight 6:54 AM CDT 7:03 PM CDT
Nautical Twilight 6:20 AM CDT 7:38 PM CDT
Astronomical Twilight 5:45 AM CDT 8:12 PM CDT
Moon 2:17 PM CDT (10/11) No Moon Set
Length of Visible Light 12h 08m
Length of Day
11h 09m
Waxing Crescent, 47% of the Moon is Illuminated
Oct 11
Waxing Crescent
Oct 11
First Quarter
Oct 18
Full
Oct 26
Last Quarter
Nov 3
New

Hourly Weather History & Observations

Time (CDT) Temp. Dew Point Humidity Pressure Visibility Wind Dir Wind Speed Gust Speed Precip Events Conditions
12:14 AM 57.2 °F 46.4 °F 67% 29.90 in 10.0 mi SE 5.8 mph - N/A   Clear
12:34 AM 57.2 °F 46.4 °F 67% 29.90 in 10.0 mi ESE 5.8 mph - N/A   Clear
12:54 AM 57.2 °F 46.4 °F 67% 29.91 in 10.0 mi SE 4.6 mph - N/A   Clear
1:15 AM 57.2 °F 46.4 °F 67% 29.91 in 10.0 mi SE 5.8 mph - N/A   Clear
1:34 AM 57.2 °F 46.4 °F 67% 29.91 in 10.0 mi SSE 4.6 mph - N/A   Clear
1:54 AM 55.4 °F 46.4 °F 72% 29.90 in 10.0 mi SE 4.6 mph - N/A   Clear
2:14 AM 55.4 °F 46.4 °F 72% 29.91 in 10.0 mi SE 3.5 mph - N/A   Clear
2:34 AM 55.4 °F 46.4 °F 72% 29.91 in 10.0 mi ESE 3.5 mph - N/A   Clear
2:54 AM 55.4 °F 46.4 °F 72% 29.91 in 10.0 mi ESE 3.5 mph - N/A   Clear
3:14 AM 55.4 °F 46.4 °F 72% 29.91 in 10.0 mi Calm Calm - N/A   Clear
3:34 AM 53.6 °F 46.4 °F 77% 29.91 in 10.0 mi ESE 3.5 mph - N/A   Clear
3:54 AM 53.6 °F 46.4 °F 77% 29.91 in 10.0 mi SE 4.6 mph - N/A   Clear
4:14 AM 53.6 °F 46.4 °F 77% 29.91 in 10.0 mi ESE 4.6 mph - N/A   Clear
4:34 AM 53.6 °F 46.4 °F 77% 29.91 in 10.0 mi ESE 4.6 mph - N/A   Clear
4:54 AM 53.6 °F 46.4 °F 77% 29.91 in 10.0 mi ESE 5.8 mph - N/A   Clear
5:14 AM 53.6 °F 46.4 °F 77% 29.91 in 10.0 mi ESE 5.8 mph - N/A   Clear
5:35 AM 53.6 °F 46.4 °F 77% 29.91 in 10.0 mi ESE 5.8 mph - N/A   Clear
5:54 AM 53.6 °F 46.4 °F 77% 29.91 in 10.0 mi ESE 5.8 mph - N/A   Clear
6:15 AM 53.6 °F 46.4 °F 77% 29.90 in 10.0 mi ESE 4.6 mph - N/A   Clear
6:34 AM 53.6 °F 46.4 °F 77% 29.90 in 10.0 mi ESE 6.9 mph - N/A   Clear
6:54 AM 53.6 °F 46.4 °F 77% 29.90 in 10.0 mi ESE 8.1 mph - N/A   Clear
7:15 AM 53.6 °F 46.4 °F 77% 29.89 in 10.0 mi ESE 6.9 mph - N/A   Clear
7:34 AM 53.6 °F 46.4 °F 77% 29.89 in 10.0 mi ESE 8.1 mph - N/A   Clear
7:54 AM 53.6 °F 46.4 °F 77% 29.88 in 10.0 mi East 8.1 mph - N/A   Clear
8:14 AM 53.6 °F 46.4 °F 77% 29.88 in 10.0 mi ESE 6.9 mph - N/A   Clear
8:34 AM 53.6 °F 46.4 °F 77% 29.88 in 10.0 mi ESE 6.9 mph - N/A   Clear
8:54 AM 55.4 °F 50.0 °F 82% 29.87 in 10.0 mi ESE 10.4 mph - N/A   Clear
9:14 AM 55.4 °F 48.2 °F 77% 29.86 in 10.0 mi ESE 8.1 mph - N/A   Clear
9:34 AM 55.4 °F 48.2 °F 77% 29.85 in 10.0 mi ESE 9.2 mph - N/A   Clear
9:54 AM 57.2 °F 50.0 °F 77% 29.85 in 10.0 mi SE 9.2 mph 17.3 mph N/A   Clear
10:14 AM 60.8 °F 51.8 °F 72% 29.84 in 10.0 mi ESE 9.2 mph - N/A   Clear
10:34 AM 62.6 °F 51.8 °F 68% 29.83 in 10.0 mi SE 12.7 mph 18.4 mph N/A   Clear
10:54 AM 64.4 °F 53.6 °F 68% 29.82 in 10.0 mi ESE 10.4 mph 16.1 mph N/A   Clear
11:14 AM 64.4 °F 51.8 °F 64% 29.82 in 10.0 mi SE 8.1 mph 23.0 mph N/A   Clear
11:34 AM 68.0 °F 51.8 °F 56% 29.79 in 10.0 mi SE 15.0 mph 26.5 mph N/A   Clear
11:54 AM 68.0 °F 51.8 °F 56% 29.78 in 10.0 mi SE 15.0 mph 25.3 mph N/A   Clear
12:14 PM 69.8 °F 53.6 °F 56% 29.77 in 10.0 mi SE 11.5 mph 28.8 mph N/A   Clear
12:34 PM 69.8 °F 51.8 °F 53% 29.75 in 10.0 mi SE 17.3 mph 23.0 mph N/A   Clear
12:54 PM 69.8 °F 51.8 °F 53% 29.75 in 10.0 mi SE 17.3 mph 26.5 mph N/A   Clear
1:14 PM 69.8 °F 50.0 °F 49% 29.72 in 10.0 mi SE 20.7 mph 27.6 mph N/A   Clear
1:34 PM 69.8 °F 46.4 °F 43% 29.71 in 10.0 mi SE 20.7 mph 32.2 mph N/A   Clear
1:54 PM 69.8 °F 48.2 °F 46% 29.69 in 10.0 mi SE 17.3 mph 27.6 mph N/A   Clear
2:14 PM 69.8 °F 50.0 °F 49% 29.71 in 10.0 mi SSE 20.7 mph 28.8 mph N/A   Clear
2:34 PM 69.8 °F 50.0 °F 49% 29.70 in 10.0 mi SSE 13.8 mph 24.2 mph N/A   Clear
2:54 PM 69.8 °F 48.2 °F 46% 29.69 in 10.0 mi SSE 17.3 mph 25.3 mph N/A   Clear
3:14 PM 69.8 °F 50.0 °F 49% 29.69 in 10.0 mi SSE 13.8 mph 21.9 mph N/A Thunderstorm Clear
3:34 PM 69.8 °F 50.0 °F 49% 29.68 in 10.0 mi SE 18.4 mph 24.2 mph N/A   Scattered Clouds
3:54 PM 68.0 °F 50.0 °F 52% 29.67 in 10.0 mi SE 12.7 mph 21.9 mph N/A Rain Light Rain
4:14 PM 69.8 °F 50.0 °F 49% 29.67 in 10.0 mi SE 16.1 mph 25.3 mph N/A   Overcast
4:34 PM 69.8 °F 51.8 °F 53% 29.67 in 10.0 mi SE 12.7 mph 24.2 mph N/A   Overcast
4:54 PM 69.8 °F 50.0 °F 49% 29.67 in 10.0 mi SSE 18.4 mph 23.0 mph N/A   Overcast
5:14 PM 69.8 °F 51.8 °F 53% 29.67 in 10.0 mi SSE 13.8 mph 25.3 mph N/A   Overcast
5:34 PM 69.8 °F 51.8 °F 53% 29.68 in 10.0 mi SSE 12.7 mph 21.9 mph N/A   Overcast
5:54 PM 69.8 °F 51.8 °F 53% 29.67 in 10.0 mi SSE 11.5 mph 19.6 mph N/A   Overcast
6:14 PM 69.8 °F 51.8 °F 53% 29.67 in 10.0 mi SSE 11.5 mph 20.7 mph N/A   Overcast
6:34 PM 69.8 °F 50.0 °F 49% 29.67 in 10.0 mi SSE 13.8 mph 21.9 mph N/A   Overcast
6:54 PM 68.0 °F 50.0 °F 52% 29.67 in 10.0 mi SSE 12.7 mph 18.4 mph N/A   Overcast
7:14 PM 68.0 °F 50.0 °F 52% 29.66 in 10.0 mi SSE 15.0 mph 23.0 mph N/A   Overcast
7:34 PM 68.0 °F 50.0 °F 52% 29.66 in 10.0 mi SSE 11.5 mph 20.7 mph N/A   Overcast
7:54 PM 68.0 °F 50.0 °F 52% 29.65 in 10.0 mi SSE 11.5 mph 19.6 mph N/A   Overcast
8:14 PM 68.0 °F 50.0 °F 52% 29.64 in 10.0 mi SSE 10.4 mph 20.7 mph N/A   Overcast
8:34 PM 66.2 °F 50.0 °F 56% 29.63 in 10.0 mi SE 13.8 mph 21.9 mph N/A   Scattered Clouds
8:54 PM 64.4 °F 50.0 °F 59% 29.62 in 10.0 mi SSE 11.5 mph 20.7 mph N/A   Scattered Clouds
9:15 PM 64.4 °F 50.0 °F 59% 29.62 in 10.0 mi SSE 12.7 mph 21.9 mph N/A   Clear
9:34 PM 64.4 °F 50.0 °F 59% 29.62 in 10.0 mi SSE 11.5 mph 19.6 mph N/A   Scattered Clouds
9:54 PM 64.4 °F 51.8 °F 64% 29.62 in 10.0 mi SSE 12.7 mph 20.7 mph N/A   Scattered Clouds
10:14 PM 66.2 °F 51.8 °F 60% 29.62 in 10.0 mi SSE 19.6 mph 26.5 mph N/A   Overcast
10:34 PM 66.2 °F 51.8 °F 60% 29.62 in 10.0 mi South 13.8 mph 24.2 mph N/A   Overcast
10:54 PM 60.8 °F 51.8 °F 72% 29.65 in 3.0 mi SW 16.1 mph 34.5 mph 0.11 in Rain , Thunderstorm Heavy Thunderstorms and Rain
11:14 PM 57.2 °F 53.6 °F 88% 29.65 in 10.0 mi South 12.7 mph 24.2 mph 0.10 in Rain Light Rain
11:34 PM 59.0 °F 53.6 °F 82% 29.66 in 10.0 mi South 5.8 mph - 0.10 in   Overcast
11:54 PM 59.0 °F 55.4 °F 88% 29.66 in 10.0 mi South 9.2 mph - 0.10 in   Mostly Cloudy